PWSweather.com
Personal Weather Stations
Station Observations
WD4JKH
Forsyth, GA 31029

Forsyth, GA 31029

Lat: 33.033225, Lon: -83.927995

Elevation: 709

Station Type: Davis Vantage VUE

High Low Average
Temperature 31.8°F-0.1°C 21.1°F-6.1°C 28.0°F-2.2°C
Dew Point 19.9°F-6.7°C 9.4°F-12.6°C 14.8°F-9.6°C
Winds 7.3 mph 11.7 kmh 1.1 mph 1.8 kmh 4.0 mph NW6.4 kmh NW
Wind Gusts 15.0 mph24.1 kmh 6.0 mph9.7 kmh 11.0 mph17.7 kmh
Humidity 63% 52% 57%
Pressure 30.57 in1035.2 mb 30.31 in1026.4 mb -
Precipitation 0.00 in0.0 mm - -
Hour Temp Dew Point Humidity Winds Wind Gusts Pressure Precip Precip Rate Daily Precip Total
12:00 AM 31.4°F-0.3°C 19.9°F-6.7°C 62% 3.7 mph NW6.0 kmh NW 12.0 mph19.3 kmh 30.31 in1026.4 mb 0.00 in0.0 mm 0.00 in0.0 mm 0.00 in0.0 mm
12:05 AM 31.4°F-0.3°C 19.9°F-6.7°C 62% 5.2 mph NW8.4 kmh NW 10.0 mph16.1 kmh 30.31 in1026.4 mb 0.00 in0.0 mm 0.00 in0.0 mm 0.00 in0.0 mm
12:10 AM 31.2°F-0.4°C 19.7°F-6.8°C 62% 2.4 mph NNW3.9 kmh NNW 10.0 mph16.1 kmh 30.31 in1026.4 mb 0.00 in0.0 mm 0.00 in0.0 mm 0.00 in0.0 mm
12:15 AM 31.1°F-0.5°C 19.6°F-6.9°C 62% 3.1 mph NW5.0 kmh NW 10.0 mph16.1 kmh 30.31 in1026.4 mb 0.00 in0.0 mm 0.00 in0.0 mm 0.00 in0.0 mm
12:20 AM 31.0°F-0.6°C 19.2°F-7.1°C 61% 2.8 mph NW4.5 kmh NW 10.0 mph16.1 kmh 30.31 in1026.4 mb 0.00 in0.0 mm 0.00 in0.0 mm 0.00 in0.0 mm
12:25 AM 30.8°F-0.7°C 19.3°F-7.1°C 62% 1.4 mph NW2.3 kmh NW 9.0 mph14.5 kmh 30.31 in1026.4 mb 0.00 in0.0 mm 0.00 in0.0 mm 0.00 in0.0 mm
12:30 AM 30.8°F-0.7°C 19.4°F-7.0°C 62% 2.7 mph NW4.3 kmh NW 9.0 mph14.5 kmh 30.31 in1026.4 mb 0.00 in0.0 mm 0.00 in0.0 mm 0.00 in0.0 mm
12:35 AM 30.7°F-0.7°C 18.9°F-7.3°C 61% 2.7 mph NW4.3 kmh NW 9.0 mph14.5 kmh 30.32 in1026.8 mb 0.00 in0.0 mm 0.00 in0.0 mm 0.00 in0.0 mm
12:40 AM 30.7°F-0.7°C 19.3°F-7.1°C 62% 2.2 mph NW3.5 kmh NW 7.0 mph11.3 kmh 30.32 in1026.8 mb 0.00 in0.0 mm 0.00 in0.0 mm 0.00 in0.0 mm
12:45 AM 30.6°F-0.8°C 18.7°F-7.4°C 61% 2.9 mph NW4.7 kmh NW 8.0 mph12.9 kmh 30.32 in1026.8 mb 0.00 in0.0 mm 0.00 in0.0 mm 0.00 in0.0 mm
12:50 AM 30.6°F-0.8°C 18.7°F-7.4°C 61% 3.1 mph NW5.0 kmh NW 8.0 mph12.9 kmh 30.32 in1026.8 mb 0.00 in0.0 mm 0.00 in0.0 mm 0.00 in0.0 mm
12:55 AM 30.6°F-0.8°C 19.2°F-7.1°C 62% 3.2 mph NW5.1 kmh NW 8.0 mph12.9 kmh 30.32 in1026.8 mb 0.00 in0.0 mm 0.00 in0.0 mm 0.00 in0.0 mm
01:00 AM 30.5°F-0.8°C 19.0°F-7.2°C 62% 2.7 mph NW4.3 kmh NW 10.0 mph16.1 kmh 30.32 in1026.8 mb 0.00 in0.0 mm 0.00 in0.0 mm 0.00 in0.0 mm
01:05 AM 30.5°F-0.8°C 19.1°F-7.2°C 62% 2.5 mph NW4.0 kmh NW 10.0 mph16.1 kmh 30.32 in1026.8 mb 0.00 in0.0 mm 0.00 in0.0 mm 0.00 in0.0 mm
01:10 AM 30.5°F-0.8°C 19.5°F-6.9°C 63% 1.6 mph NW2.6 kmh NW 10.0 mph16.1 kmh 30.32 in1026.8 mb 0.00 in0.0 mm 0.00 in0.0 mm 0.00 in0.0 mm
01:15 AM 30.5°F-0.8°C 19.0°F-7.2°C 62% 3.0 mph NW4.8 kmh NW 10.0 mph16.1 kmh 30.32 in1026.8 mb 0.00 in0.0 mm 0.00 in0.0 mm 0.00 in0.0 mm
01:20 AM 30.5°F-0.8°C 19.1°F-7.2°C 62% 2.8 mph NW4.5 kmh NW 8.0 mph12.9 kmh 30.32 in1026.8 mb 0.00 in0.0 mm 0.00 in0.0 mm 0.00 in0.0 mm
01:25 AM 30.5°F-0.8°C 19.5°F-6.9°C 63% 2.2 mph NW3.5 kmh NW 8.0 mph12.9 kmh 30.33 in1027.1 mb 0.00 in0.0 mm 0.00 in0.0 mm 0.00 in0.0 mm
01:30 AM 30.5°F-0.8°C 19.5°F-6.9°C 63% 2.7 mph NW4.3 kmh NW 8.0 mph12.9 kmh 30.33 in1027.1 mb 0.00 in0.0 mm 0.00 in0.0 mm 0.00 in0.0 mm
01:35 AM 30.6°F-0.8°C 19.6°F-6.9°C 63% 2.2 mph NW3.5 kmh NW 8.0 mph12.9 kmh 30.33 in1027.1 mb 0.00 in0.0 mm 0.00 in0.0 mm 0.00 in0.0 mm
01:40 AM 30.6°F-0.8°C 19.6°F-6.9°C 63% 3.0 mph NNW4.8 kmh NNW 8.0 mph12.9 kmh 30.33 in1027.1 mb 0.00 in0.0 mm 0.00 in0.0 mm 0.00 in0.0 mm
01:45 AM 30.7°F-0.7°C 19.6°F-6.9°C 63% 2.2 mph NW3.5 kmh NW 8.0 mph12.9 kmh 30.33 in1027.1 mb 0.00 in0.0 mm 0.00 in0.0 mm 0.00 in0.0 mm
01:50 AM 30.7°F-0.7°C 19.6°F-6.9°C 63% 3.2 mph NW5.1 kmh NW 8.0 mph12.9 kmh 30.33 in1027.1 mb 0.00 in0.0 mm 0.00 in0.0 mm 0.00 in0.0 mm
01:55 AM 30.8°F-0.7°C 19.7°F-6.8°C 63% 2.6 mph NW4.2 kmh NW 8.0 mph12.9 kmh 30.33 in1027.1 mb 0.00 in0.0 mm 0.00 in0.0 mm 0.00 in0.0 mm
02:00 AM 30.9°F-0.6°C 19.8°F-6.8°C 63% 3.3 mph NNW5.3 kmh NNW 7.0 mph11.3 kmh 30.33 in1027.1 mb 0.00 in0.0 mm 0.00 in0.0 mm 0.00 in0.0 mm
02:05 AM 31.0°F-0.6°C 19.5°F-6.9°C 62% 5.7 mph NNW9.2 kmh NNW 9.0 mph14.5 kmh 30.33 in1027.1 mb 0.00 in0.0 mm 0.00 in0.0 mm 0.00 in0.0 mm
02:10 AM 31.1°F-0.5°C 19.6°F-6.9°C 62% 2.4 mph NNW3.9 kmh NNW 9.0 mph14.5 kmh 30.33 in1027.1 mb 0.00 in0.0 mm 0.00 in0.0 mm 0.00 in0.0 mm
02:15 AM 31.2°F-0.4°C 19.7°F-6.8°C 62% 2.2 mph NNW3.5 kmh NNW 9.0 mph14.5 kmh 30.33 in1027.1 mb 0.00 in0.0 mm 0.00 in0.0 mm 0.00 in0.0 mm
02:20 AM 31.2°F-0.4°C 19.7°F-6.8°C 62% 2.6 mph NNW4.2 kmh NNW 11.0 mph17.7 kmh 30.33 in1027.1 mb 0.00 in0.0 mm 0.00 in0.0 mm 0.00 in0.0 mm
02:25 AM 31.2°F-0.4°C 19.4°F-7.0°C 61% 3.6 mph NNW5.8 kmh NNW 11.0 mph17.7 kmh 30.34 in1027.4 mb 0.00 in0.0 mm 0.00 in0.0 mm 0.00 in0.0 mm
02:30 AM 31.1°F-0.5°C 19.3°F-7.1°C 61% 4.5 mph NNW7.2 kmh NNW 11.0 mph17.7 kmh 30.34 in1027.4 mb 0.00 in0.0 mm 0.00 in0.0 mm 0.00 in0.0 mm
02:35 AM 31.0°F-0.6°C 19.2°F-7.1°C 61% 4.0 mph NNW6.4 kmh NNW 13.0 mph20.9 kmh 30.33 in1027.1 mb 0.00 in0.0 mm 0.00 in0.0 mm 0.00 in0.0 mm
02:40 AM 31.0°F-0.6°C 19.1°F-7.2°C 61% 5.7 mph N9.2 kmh N 14.0 mph22.5 kmh 30.34 in1027.4 mb 0.00 in0.0 mm 0.00 in0.0 mm 0.00 in0.0 mm
02:45 AM 31.0°F-0.6°C 19.2°F-7.1°C 61% 4.2 mph N6.8 kmh N 14.0 mph22.5 kmh 30.33 in1027.1 mb 0.00 in0.0 mm 0.00 in0.0 mm 0.00 in0.0 mm
02:50 AM 30.9°F-0.6°C 19.1°F-7.2°C 61% 2.6 mph NNW4.2 kmh NNW 14.0 mph22.5 kmh 30.33 in1027.1 mb 0.00 in0.0 mm 0.00 in0.0 mm 0.00 in0.0 mm
02:55 AM 30.9°F-0.6°C 19.1°F-7.2°C 61% 3.6 mph NW5.8 kmh NW 14.0 mph22.5 kmh 30.33 in1027.1 mb 0.00 in0.0 mm 0.00 in0.0 mm 0.00 in0.0 mm
03:00 AM 30.8°F-0.7°C 19.0°F-7.2°C 61% 2.4 mph NNW3.9 kmh NNW 13.0 mph20.9 kmh 30.33 in1027.1 mb 0.00 in0.0 mm 0.00 in0.0 mm 0.00 in0.0 mm
03:05 AM 30.8°F-0.7°C 19.4°F-7.0°C 62% 1.5 mph N2.4 kmh N 13.0 mph20.9 kmh 30.33 in1027.1 mb 0.00 in0.0 mm 0.00 in0.0 mm 0.00 in0.0 mm
03:10 AM 30.7°F-0.7°C 18.9°F-7.3°C 61% 4.0 mph NNW6.4 kmh NNW 13.0 mph20.9 kmh 30.34 in1027.4 mb 0.00 in0.0 mm 0.00 in0.0 mm 0.00 in0.0 mm
03:15 AM 30.6°F-0.8°C 18.7°F-7.4°C 61% 3.6 mph NW5.8 kmh NW 13.0 mph20.9 kmh 30.34 in1027.4 mb 0.00 in0.0 mm 0.00 in0.0 mm 0.00 in0.0 mm
03:20 AM 30.5°F-0.8°C 18.6°F-7.4°C 61% 4.7 mph NNW7.6 kmh NNW 11.0 mph17.7 kmh 30.34 in1027.4 mb 0.00 in0.0 mm 0.00 in0.0 mm 0.00 in0.0 mm
03:25 AM 30.4°F-0.9°C 18.6°F-7.4°C 61% 4.8 mph NNW7.7 kmh NNW 11.0 mph17.7 kmh 30.34 in1027.4 mb 0.00 in0.0 mm 0.00 in0.0 mm 0.00 in0.0 mm
03:30 AM 30.3°F-0.9°C 18.5°F-7.5°C 61% 5.3 mph NW8.5 kmh NW 11.0 mph17.7 kmh 30.34 in1027.4 mb 0.00 in0.0 mm 0.00 in0.0 mm 0.00 in0.0 mm
03:35 AM 30.4°F-0.9°C 19.0°F-7.2°C 62% 3.4 mph N5.5 kmh N 11.0 mph17.7 kmh 30.35 in1027.8 mb 0.00 in0.0 mm 0.00 in0.0 mm 0.00 in0.0 mm
03:40 AM 30.3°F-0.9°C 18.9°F-7.3°C 62% 3.3 mph NNW5.3 kmh NNW 11.0 mph17.7 kmh 30.34 in1027.4 mb 0.00 in0.0 mm 0.00 in0.0 mm 0.00 in0.0 mm
03:45 AM 30.2°F-1.0°C 18.8°F-7.3°C 62% 4.9 mph NNW7.9 kmh NNW 11.0 mph17.7 kmh 30.35 in1027.8 mb 0.00 in0.0 mm 0.00 in0.0 mm 0.00 in0.0 mm
03:50 AM 30.2°F-1.0°C 18.8°F-7.3°C 62% 4.1 mph N6.6 kmh N 11.0 mph17.7 kmh 30.35 in1027.8 mb 0.00 in0.0 mm 0.00 in0.0 mm 0.00 in0.0 mm
03:55 AM 30.2°F-1.0°C 18.8°F-7.3°C 62% 2.8 mph N4.5 kmh N 11.0 mph17.7 kmh 30.35 in1027.8 mb 0.00 in0.0 mm 0.00 in0.0 mm 0.00 in0.0 mm
04:00 AM 30.1°F-1.1°C 18.7°F-7.4°C 62% 5.2 mph N8.4 kmh N 12.0 mph19.3 kmh 30.35 in1027.8 mb 0.00 in0.0 mm 0.00 in0.0 mm 0.00 in0.0 mm
04:05 AM 30.1°F-1.1°C 18.6°F-7.4°C 62% 4.0 mph N6.4 kmh N 12.0 mph19.3 kmh 30.35 in1027.8 mb 0.00 in0.0 mm 0.00 in0.0 mm 0.00 in0.0 mm
04:10 AM 30.0°F-1.1°C 18.6°F-7.4°C 62% 3.9 mph N6.3 kmh N 12.0 mph19.3 kmh 30.35 in1027.8 mb 0.00 in0.0 mm 0.00 in0.0 mm 0.00 in0.0 mm
04:15 AM 30.0°F-1.1°C 18.6°F-7.4°C 62% 4.4 mph NNW7.1 kmh NNW 12.0 mph19.3 kmh 30.35 in1027.8 mb 0.00 in0.0 mm 0.00 in0.0 mm 0.00 in0.0 mm
04:19 AM 30.0°F-1.1°C 18.9°F-7.3°C 63% 1.8 mph NW2.9 kmh NW 12.0 mph19.3 kmh 30.35 in1027.8 mb 0.00 in0.0 mm 0.00 in0.0 mm 0.00 in0.0 mm
04:24 AM 30.0°F-1.1°C 19.0°F-7.2°C 63% 1.2 mph NW1.9 kmh NW 11.0 mph17.7 kmh 30.35 in1027.8 mb 0.00 in0.0 mm 0.00 in0.0 mm 0.00 in0.0 mm
04:29 AM 29.8°F-1.2°C 18.4°F-7.6°C 62% 4.1 mph NNW6.6 kmh NNW 11.0 mph17.7 kmh 30.35 in1027.8 mb 0.00 in0.0 mm 0.00 in0.0 mm 0.00 in0.0 mm
04:34 AM 29.6°F-1.3°C 17.8°F-7.9°C 61% 4.7 mph NW7.6 kmh NW 11.0 mph17.7 kmh 30.35 in1027.8 mb 0.00 in0.0 mm 0.00 in0.0 mm 0.00 in0.0 mm
04:39 AM 29.4°F-1.4°C 17.7°F-7.9°C 61% 3.4 mph NNW5.5 kmh NNW 11.0 mph17.7 kmh 30.36 in1028.1 mb 0.00 in0.0 mm 0.00 in0.0 mm 0.00 in0.0 mm
04:44 AM 29.3°F-1.5°C 17.5°F-8.1°C 61% 3.6 mph N5.8 kmh N 11.0 mph17.7 kmh 30.35 in1027.8 mb 0.00 in0.0 mm 0.00 in0.0 mm 0.00 in0.0 mm
04:49 AM 29.2°F-1.6°C 17.5°F-8.1°C 61% 2.3 mph 3.7 kmh 10.0 mph16.1 kmh 30.36 in1028.1 mb 0.00 in0.0 mm 0.00 in0.0 mm 0.00 in0.0 mm
04:54 AM 29.2°F-1.6°C 17.4°F-8.1°C 61% 2.3 mph NNW3.7 kmh NNW 10.0 mph16.1 kmh 30.36 in1028.1 mb 0.00 in0.0 mm 0.00 in0.0 mm 0.00 in0.0 mm
04:59 AM 29.0°F-1.7°C 16.4°F-8.7°C 59% 4.8 mph NNW7.7 kmh NNW 11.0 mph17.7 kmh 30.36 in1028.1 mb 0.00 in0.0 mm 0.00 in0.0 mm 0.00 in0.0 mm
05:04 AM 28.9°F-1.7°C 16.4°F-8.7°C 59% 2.1 mph NNW3.4 kmh NNW 11.0 mph17.7 kmh 30.36 in1028.1 mb 0.00 in0.0 mm 0.00 in0.0 mm 0.00 in0.0 mm
05:09 AM 28.8°F-1.8°C 16.3°F-8.7°C 59% 2.4 mph NNW3.9 kmh NNW 11.0 mph17.7 kmh 30.36 in1028.1 mb 0.00 in0.0 mm 0.00 in0.0 mm 0.00 in0.0 mm
05:14 AM 28.7°F-1.8°C 16.2°F-8.8°C 59% 4.6 mph N7.4 kmh N 11.0 mph17.7 kmh 30.36 in1028.1 mb 0.00 in0.0 mm 0.00 in0.0 mm 0.00 in0.0 mm
05:19 AM 28.6°F-1.9°C 16.1°F-8.8°C 59% 3.6 mph NNW5.8 kmh NNW 9.0 mph14.5 kmh 30.36 in1028.1 mb 0.00 in0.0 mm 0.00 in0.0 mm 0.00 in0.0 mm
05:24 AM 28.6°F-1.9°C 16.1°F-8.8°C 59% 4.1 mph NNW6.6 kmh NNW 9.0 mph14.5 kmh 30.37 in1028.4 mb 0.00 in0.0 mm 0.00 in0.0 mm 0.00 in0.0 mm
05:29 AM 28.5°F-1.9°C 15.6°F-9.1°C 58% 4.0 mph NNW6.4 kmh NNW 10.0 mph16.1 kmh 30.37 in1028.4 mb 0.00 in0.0 mm 0.00 in0.0 mm 0.00 in0.0 mm
05:34 AM 28.4°F-2.0°C 15.5°F-9.2°C 58% 3.3 mph NNW5.3 kmh NNW 10.0 mph16.1 kmh 30.37 in1028.4 mb 0.00 in0.0 mm 0.00 in0.0 mm 0.00 in0.0 mm
05:39 AM 28.3°F-2.1°C 15.4°F-9.2°C 58% 2.5 mph NNW4.0 kmh NNW 10.0 mph16.1 kmh 30.37 in1028.4 mb 0.00 in0.0 mm 0.00 in0.0 mm 0.00 in0.0 mm
05:44 AM 28.2°F-2.1°C 15.3°F-9.3°C 58% 2.0 mph N3.2 kmh N 10.0 mph16.1 kmh 30.37 in1028.4 mb 0.00 in0.0 mm 0.00 in0.0 mm 0.00 in0.0 mm
05:49 AM 28.1°F-2.2°C 14.8°F-9.6°C 57% 5.6 mph NNW9.0 kmh NNW 12.0 mph19.3 kmh 30.38 in1028.8 mb 0.00 in0.0 mm 0.00 in0.0 mm 0.00 in0.0 mm
05:54 AM 28.1°F-2.2°C 15.2°F-9.3°C 58% 3.0 mph NNW4.8 kmh NNW 12.0 mph19.3 kmh 30.38 in1028.8 mb 0.00 in0.0 mm 0.00 in0.0 mm 0.00 in0.0 mm
05:59 AM 28.1°F-2.2°C 14.8°F-9.6°C 57% 3.1 mph NNW5.0 kmh NNW 12.0 mph19.3 kmh 30.38 in1028.8 mb 0.00 in0.0 mm 0.00 in0.0 mm 0.00 in0.0 mm
06:04 AM 28.0°F-2.2°C 14.7°F-9.6°C 57% 4.2 mph NNW6.8 kmh NNW 12.0 mph19.3 kmh 30.38 in1028.8 mb 0.00 in0.0 mm 0.00 in0.0 mm 0.00 in0.0 mm
06:09 AM 28.0°F-2.2°C 14.7°F-9.6°C 57% 3.3 mph NNW5.3 kmh NNW 9.0 mph14.5 kmh 30.38 in1028.8 mb 0.00 in0.0 mm 0.00 in0.0 mm 0.00 in0.0 mm
06:14 AM 28.0°F-2.2°C 14.7°F-9.6°C 57% 4.4 mph NNW7.1 kmh NNW 10.0 mph16.1 kmh 30.39 in1029.1 mb 0.00 in0.0 mm 0.00 in0.0 mm 0.00 in0.0 mm
06:19 AM 27.9°F-2.3°C 14.6°F-9.7°C 57% 3.3 mph NNW5.3 kmh NNW 10.0 mph16.1 kmh 30.39 in1029.1 mb 0.00 in0.0 mm 0.00 in0.0 mm 0.00 in0.0 mm
06:24 AM 27.8°F-2.3°C 14.5°F-9.7°C 57% 2.9 mph NNW4.7 kmh NNW 11.0 mph17.7 kmh 30.39 in1029.1 mb 0.00 in0.0 mm 0.00 in0.0 mm 0.00 in0.0 mm
06:29 AM 27.8°F-2.3°C 14.6°F-9.7°C 57% 2.6 mph NNW4.2 kmh NNW 11.0 mph17.7 kmh 30.39 in1029.1 mb 0.00 in0.0 mm 0.00 in0.0 mm 0.00 in0.0 mm
06:34 AM 27.7°F-2.4°C 14.5°F-9.7°C 57% 2.6 mph NNW4.2 kmh NNW 11.0 mph17.7 kmh 30.39 in1029.1 mb 0.00 in0.0 mm 0.00 in0.0 mm 0.00 in0.0 mm
06:39 AM 27.7°F-2.4°C 14.0°F-10.0°C 56% 4.1 mph NNW6.6 kmh NNW 11.0 mph17.7 kmh 30.40 in1029.5 mb 0.00 in0.0 mm 0.00 in0.0 mm 0.00 in0.0 mm
06:44 AM 27.5°F-2.5°C 13.8°F-10.1°C 56% 4.0 mph NW6.4 kmh NW 9.0 mph14.5 kmh 30.40 in1029.5 mb 0.00 in0.0 mm 0.00 in0.0 mm 0.00 in0.0 mm
06:49 AM 27.5°F-2.5°C 13.9°F-10.1°C 56% 5.4 mph NW8.7 kmh NW 10.0 mph16.1 kmh 30.40 in1029.5 mb 0.00 in0.0 mm 0.00 in0.0 mm 0.00 in0.0 mm
06:54 AM 27.5°F-2.5°C 13.9°F-10.1°C 56% 2.3 mph NNW3.7 kmh NNW 10.0 mph16.1 kmh 30.40 in1029.5 mb 0.00 in0.0 mm 0.00 in0.0 mm 0.00 in0.0 mm
06:59 AM 27.5°F-2.5°C 13.8°F-10.1°C 56% 4.3 mph NNW6.9 kmh NNW 10.0 mph16.1 kmh 30.41 in1029.8 mb 0.00 in0.0 mm 0.00 in0.0 mm 0.00 in0.0 mm
07:04 AM 27.4°F-2.6°C 13.8°F-10.1°C 56% 2.8 mph NW4.5 kmh NW 10.0 mph16.1 kmh 30.41 in1029.8 mb 0.00 in0.0 mm 0.00 in0.0 mm 0.00 in0.0 mm
07:09 AM 27.2°F-2.7°C 13.2°F-10.4°C 55% 3.1 mph NW5.0 kmh NW 9.0 mph14.5 kmh 30.41 in1029.8 mb 0.00 in0.0 mm 0.00 in0.0 mm 0.00 in0.0 mm
07:14 AM 27.1°F-2.7°C 13.1°F-10.5°C 55% 3.5 mph NNW5.6 kmh NNW 9.0 mph14.5 kmh 30.42 in1030.1 mb 0.00 in0.0 mm 0.00 in0.0 mm 0.00 in0.0 mm
07:19 AM 26.9°F-2.8°C 13.3°F-10.4°C 56% 3.4 mph NNW5.5 kmh NNW 10.0 mph16.1 kmh 30.42 in1030.1 mb 0.00 in0.0 mm 0.00 in0.0 mm 0.00 in0.0 mm
07:24 AM 26.8°F-2.9°C 12.8°F-10.7°C 55% 1.8 mph NNW2.9 kmh NNW 10.0 mph16.1 kmh 30.42 in1030.1 mb 0.00 in0.0 mm 0.00 in0.0 mm 0.00 in0.0 mm
07:29 AM 26.7°F-2.9°C 12.7°F-10.7°C 55% 4.2 mph NW6.8 kmh NW 10.0 mph16.1 kmh 30.43 in1030.5 mb 0.00 in0.0 mm 0.00 in0.0 mm 0.00 in0.0 mm
07:34 AM 26.5°F-3.1°C 12.5°F-10.8°C 55% 2.7 mph NNW4.3 kmh NNW 9.0 mph14.5 kmh 30.43 in1030.5 mb 0.00 in0.0 mm 0.00 in0.0 mm 0.00 in0.0 mm
07:39 AM 26.3°F-3.2°C 12.3°F-10.9°C 55% 3.3 mph NW5.3 kmh NW 10.0 mph16.1 kmh 30.43 in1030.5 mb 0.00 in0.0 mm 0.00 in0.0 mm 0.00 in0.0 mm
07:44 AM 26.1°F-3.3°C 12.1°F-11.1°C 55% 2.9 mph NNW4.7 kmh NNW 10.0 mph16.1 kmh 30.43 in1030.5 mb 0.00 in0.0 mm 0.00 in0.0 mm 0.00 in0.0 mm
07:49 AM 26.1°F-3.3°C 12.1°F-11.1°C 55% 2.7 mph NNW4.3 kmh NNW 10.0 mph16.1 kmh 30.43 in1030.5 mb 0.00 in0.0 mm 0.00 in0.0 mm 0.00 in0.0 mm
07:54 AM 26.1°F-3.3°C 12.1°F-11.1°C 55% 2.4 mph N3.9 kmh N 10.0 mph16.1 kmh 30.43 in1030.5 mb 0.00 in0.0 mm 0.00 in0.0 mm 0.00 in0.0 mm
07:59 AM 26.0°F-3.3°C 12.0°F-11.1°C 55% 3.8 mph NW6.1 kmh NW 10.0 mph16.1 kmh 30.43 in1030.5 mb 0.00 in0.0 mm 0.00 in0.0 mm 0.00 in0.0 mm
08:04 AM 25.9°F-3.4°C 11.9°F-11.2°C 55% 2.6 mph NNW4.2 kmh NNW 10.0 mph16.1 kmh 30.44 in1030.8 mb 0.00 in0.0 mm 0.00 in0.0 mm 0.00 in0.0 mm
08:09 AM 25.9°F-3.4°C 12.4°F-10.9°C 56% 4.4 mph NNW7.1 kmh NNW 12.0 mph19.3 kmh 30.44 in1030.8 mb 0.00 in0.0 mm 0.00 in0.0 mm 0.00 in0.0 mm
08:14 AM 25.8°F-3.4°C 11.8°F-11.2°C 55% 4.7 mph NNW7.6 kmh NNW 12.0 mph19.3 kmh 30.44 in1030.8 mb 0.00 in0.0 mm 0.00 in0.0 mm 0.00 in0.0 mm
08:19 AM 25.7°F-3.5°C 11.7°F-11.3°C 55% 5.6 mph NNW9.0 kmh NNW 12.0 mph19.3 kmh 30.44 in1030.8 mb 0.00 in0.0 mm 0.00 in0.0 mm 0.00 in0.0 mm
08:24 AM 25.7°F-3.5°C 12.2°F-11.0°C 56% 3.9 mph NNW6.3 kmh NNW 12.0 mph19.3 kmh 30.45 in1031.2 mb 0.00 in0.0 mm 0.00 in0.0 mm 0.00 in0.0 mm
08:29 AM 25.7°F-3.5°C 11.7°F-11.3°C 55% 3.9 mph NNW6.3 kmh NNW 11.0 mph17.7 kmh 30.45 in1031.2 mb 0.00 in0.0 mm 0.00 in0.0 mm 0.00 in0.0 mm
08:34 AM 25.7°F-3.5°C 12.2°F-11.0°C 56% 1.9 mph NNW3.1 kmh NNW 11.0 mph17.7 kmh 30.45 in1031.2 mb 0.00 in0.0 mm 0.00 in0.0 mm 0.00 in0.0 mm
08:39 AM 25.8°F-3.4°C 12.3°F-10.9°C 56% 3.5 mph NNW5.6 kmh NNW 10.0 mph16.1 kmh 30.45 in1031.2 mb 0.00 in0.0 mm 0.00 in0.0 mm 0.00 in0.0 mm
08:44 AM 25.8°F-3.4°C 11.8°F-11.2°C 55% 4.8 mph NNW7.7 kmh NNW 9.0 mph14.5 kmh 30.46 in1031.5 mb 0.00 in0.0 mm 0.00 in0.0 mm 0.00 in0.0 mm
08:49 AM 25.8°F-3.4°C 12.3°F-10.9°C 56% 2.3 mph NNW3.7 kmh NNW 9.0 mph14.5 kmh 30.46 in1031.5 mb 0.00 in0.0 mm 0.00 in0.0 mm 0.00 in0.0 mm
08:54 AM 25.8°F-3.4°C 11.8°F-11.2°C 55% 4.8 mph NNW7.7 kmh NNW 10.0 mph16.1 kmh 30.47 in1031.8 mb 0.00 in0.0 mm 0.00 in0.0 mm 0.00 in0.0 mm
08:59 AM 25.8°F-3.4°C 12.2°F-11.0°C 56% 4.0 mph NNW6.4 kmh NNW 10.0 mph16.1 kmh 30.47 in1031.8 mb 0.00 in0.0 mm 0.00 in0.0 mm 0.00 in0.0 mm
09:04 AM 25.8°F-3.4°C 12.3°F-10.9°C 56% 4.9 mph NNW7.9 kmh NNW 10.0 mph16.1 kmh 30.47 in1031.8 mb 0.00 in0.0 mm 0.00 in0.0 mm 0.00 in0.0 mm
09:09 AM 25.7°F-3.5°C 12.2°F-11.0°C 56% 2.7 mph NNW4.3 kmh NNW 10.0 mph16.1 kmh 30.47 in1031.8 mb 0.00 in0.0 mm 0.00 in0.0 mm 0.00 in0.0 mm
09:14 AM 25.7°F-3.5°C 11.7°F-11.3°C 55% 4.7 mph NNW7.6 kmh NNW 11.0 mph17.7 kmh 30.47 in1031.8 mb 0.00 in0.0 mm 0.00 in0.0 mm 0.00 in0.0 mm
09:19 AM 25.7°F-3.5°C 11.7°F-11.3°C 55% 5.1 mph NNW8.2 kmh NNW 11.0 mph17.7 kmh 30.47 in1031.8 mb 0.00 in0.0 mm 0.00 in0.0 mm 0.00 in0.0 mm
09:24 AM 25.5°F-3.6°C 11.6°F-11.3°C 55% 6.5 mph NNW10.5 kmh NNW 12.0 mph19.3 kmh 30.48 in1032.2 mb 0.00 in0.0 mm 0.00 in0.0 mm 0.00 in0.0 mm
09:29 AM 25.3°F-3.7°C 11.4°F-11.4°C 55% 5.6 mph NNW9.0 kmh NNW 12.0 mph19.3 kmh 30.49 in1032.5 mb 0.00 in0.0 mm 0.00 in0.0 mm 0.00 in0.0 mm
09:34 AM 25.3°F-3.7°C 11.4°F-11.4°C 55% 6.1 mph NW9.8 kmh NW 15.0 mph24.1 kmh 30.48 in1032.2 mb 0.00 in0.0 mm 0.00 in0.0 mm 0.00 in0.0 mm
09:39 AM 25.4°F-3.7°C 11.9°F-11.2°C 56% 3.2 mph N5.1 kmh N 15.0 mph24.1 kmh 30.49 in1032.5 mb 0.00 in0.0 mm 0.00 in0.0 mm 0.00 in0.0 mm
09:44 AM 25.4°F-3.7°C 11.9°F-11.2°C 56% 3.7 mph NNW6.0 kmh NNW 15.0 mph24.1 kmh 30.49 in1032.5 mb 0.00 in0.0 mm 0.00 in0.0 mm 0.00 in0.0 mm
09:49 AM 25.6°F-3.6°C 12.1°F-11.1°C 56% 3.2 mph N5.1 kmh N 15.0 mph24.1 kmh 30.49 in1032.5 mb 0.00 in0.0 mm 0.00 in0.0 mm 0.00 in0.0 mm
09:54 AM 25.7°F-3.5°C 12.2°F-11.0°C 56% 4.4 mph N7.1 kmh N 10.0 mph16.1 kmh 30.50 in1032.8 mb 0.00 in0.0 mm 0.00 in0.0 mm 0.00 in0.0 mm
09:59 AM 25.7°F-3.5°C 12.2°F-11.0°C 56% 3.3 mph N5.3 kmh N 10.0 mph16.1 kmh 30.50 in1032.8 mb 0.00 in0.0 mm 0.00 in0.0 mm 0.00 in0.0 mm
10:04 AM 25.7°F-3.5°C 12.2°F-11.0°C 56% 3.8 mph NNW6.1 kmh NNW 10.0 mph16.1 kmh 30.50 in1032.8 mb 0.00 in0.0 mm 0.00 in0.0 mm 0.00 in0.0 mm
10:09 AM 25.8°F-3.4°C 12.3°F-10.9°C 56% 4.0 mph NNW6.4 kmh NNW 12.0 mph19.3 kmh 30.50 in1032.8 mb 0.00 in0.0 mm 0.00 in0.0 mm 0.00 in0.0 mm
10:14 AM 26.0°F-3.3°C 12.4°F-10.9°C 56% 3.3 mph NW5.3 kmh NW 12.0 mph19.3 kmh 30.51 in1033.2 mb 0.00 in0.0 mm 0.00 in0.0 mm 0.00 in0.0 mm
10:19 AM 25.9°F-3.4°C 12.4°F-10.9°C 56% 4.0 mph N6.4 kmh N 14.0 mph22.5 kmh 30.51 in1033.2 mb 0.00 in0.0 mm 0.00 in0.0 mm 0.00 in0.0 mm
10:24 AM 26.2°F-3.2°C 12.6°F-10.8°C 56% 2.6 mph NNW4.2 kmh NNW 14.0 mph22.5 kmh 30.51 in1033.2 mb 0.00 in0.0 mm 0.00 in0.0 mm 0.00 in0.0 mm
10:29 AM 26.3°F-3.2°C 12.7°F-10.7°C 56% 2.8 mph NNW4.5 kmh NNW 14.0 mph22.5 kmh 30.51 in1033.2 mb 0.00 in0.0 mm 0.00 in0.0 mm 0.00 in0.0 mm
10:34 AM 26.4°F-3.1°C 12.4°F-10.9°C 55% 3.3 mph NNW5.3 kmh NNW 14.0 mph22.5 kmh 30.51 in1033.2 mb 0.00 in0.0 mm 0.00 in0.0 mm 0.00 in0.0 mm
10:39 AM 26.5°F-3.1°C 12.5°F-10.8°C 55% 6.2 mph N10.0 kmh N 12.0 mph19.3 kmh 30.51 in1033.2 mb 0.00 in0.0 mm 0.00 in0.0 mm 0.00 in0.0 mm
10:44 AM 26.5°F-3.1°C 12.9°F-10.6°C 56% 4.4 mph NNW7.1 kmh NNW 12.0 mph19.3 kmh 30.51 in1033.2 mb 0.00 in0.0 mm 0.00 in0.0 mm 0.00 in0.0 mm
10:49 AM 26.6°F-3.0°C 12.6°F-10.8°C 55% 3.5 mph NNW5.6 kmh NNW 12.0 mph19.3 kmh 30.50 in1032.8 mb 0.00 in0.0 mm 0.00 in0.0 mm 0.00 in0.0 mm
10:54 AM 26.6°F-3.0°C 12.6°F-10.8°C 55% 5.5 mph N8.9 kmh N 12.0 mph19.3 kmh 30.51 in1033.2 mb 0.00 in0.0 mm 0.00 in0.0 mm 0.00 in0.0 mm
10:59 AM 26.7°F-2.9°C 13.1°F-10.5°C 56% 2.4 mph NNW3.9 kmh NNW 12.0 mph19.3 kmh 30.51 in1033.2 mb 0.00 in0.0 mm 0.00 in0.0 mm 0.00 in0.0 mm
11:04 AM 26.8°F-2.9°C 12.8°F-10.7°C 55% 4.9 mph NNW7.9 kmh NNW 11.0 mph17.7 kmh 30.51 in1033.2 mb 0.00 in0.0 mm 0.00 in0.0 mm 0.00 in0.0 mm
11:09 AM 27.0°F-2.8°C 13.4°F-10.3°C 56% 2.8 mph N4.5 kmh N 11.0 mph17.7 kmh 30.51 in1033.2 mb 0.00 in0.0 mm 0.00 in0.0 mm 0.00 in0.0 mm
11:14 AM 27.2°F-2.7°C 13.1°F-10.5°C 55% 4.4 mph NNW7.1 kmh NNW 11.0 mph17.7 kmh 30.51 in1033.2 mb 0.00 in0.0 mm 0.00 in0.0 mm 0.00 in0.0 mm
11:18 AM 27.3°F-2.6°C 13.7°F-10.2°C 56% 4.0 mph N6.4 kmh N 11.0 mph17.7 kmh 30.51 in1033.2 mb 0.00 in0.0 mm 0.00 in0.0 mm 0.00 in0.0 mm
11:23 AM 27.5°F-2.5°C 13.9°F-10.1°C 56% 2.1 mph N3.4 kmh N 10.0 mph16.1 kmh 30.51 in1033.2 mb 0.00 in0.0 mm 0.00 in0.0 mm 0.00 in0.0 mm
11:28 AM 27.8°F-2.3°C 13.7°F-10.2°C 55% 4.1 mph N6.6 kmh N 9.0 mph14.5 kmh 30.50 in1032.8 mb 0.00 in0.0 mm 0.00 in0.0 mm 0.00 in0.0 mm
11:33 AM 28.0°F-2.2°C 14.3°F-9.8°C 56% 4.5 mph NW7.2 kmh NW 10.0 mph16.1 kmh 30.50 in1032.8 mb 0.00 in0.0 mm 0.00 in0.0 mm 0.00 in0.0 mm
11:38 AM 28.1°F-2.2°C 14.0°F-10.0°C 55% 3.5 mph NNE5.6 kmh NNE 10.0 mph16.1 kmh 30.50 in1032.8 mb 0.00 in0.0 mm 0.00 in0.0 mm 0.00 in0.0 mm
11:43 AM 28.1°F-2.2°C 14.0°F-10.0°C 55% 5.0 mph NNW8.0 kmh NNW 10.0 mph16.1 kmh 30.50 in1032.8 mb 0.00 in0.0 mm 0.00 in0.0 mm 0.00 in0.0 mm
11:48 AM 28.2°F-2.1°C 14.1°F-9.9°C 55% 4.5 mph N7.2 kmh N 11.0 mph17.7 kmh 30.50 in1032.8 mb 0.00 in0.0 mm 0.00 in0.0 mm 0.00 in0.0 mm
11:53 AM 28.4°F-2.0°C 14.7°F-9.6°C 56% 2.9 mph N4.7 kmh N 11.0 mph17.7 kmh 30.50 in1032.8 mb 0.00 in0.0 mm 0.00 in0.0 mm 0.00 in0.0 mm
11:58 AM 28.3°F-2.1°C 14.2°F-9.9°C 55% 3.7 mph N6.0 kmh N 11.0 mph17.7 kmh 30.50 in1032.8 mb 0.00 in0.0 mm 0.00 in0.0 mm 0.00 in0.0 mm
12:03 PM 28.4°F-2.0°C 14.3°F-9.8°C 55% 4.7 mph N7.6 kmh N 11.0 mph17.7 kmh 30.50 in1032.8 mb 0.00 in0.0 mm 0.00 in0.0 mm 0.00 in0.0 mm
12:08 PM 28.4°F-2.0°C 14.3°F-9.8°C 55% 5.1 mph N8.2 kmh N 11.0 mph17.7 kmh 30.49 in1032.5 mb 0.00 in0.0 mm 0.00 in0.0 mm 0.00 in0.0 mm
12:13 PM 28.4°F-2.0°C 14.3°F-9.8°C 55% 5.6 mph N9.0 kmh N 13.0 mph20.9 kmh 30.49 in1032.5 mb 0.00 in0.0 mm 0.00 in0.0 mm 0.00 in0.0 mm
12:18 PM 28.4°F-2.0°C 14.3°F-9.8°C 55% 5.1 mph NE8.2 kmh NE 13.0 mph20.9 kmh 30.49 in1032.5 mb 0.00 in0.0 mm 0.00 in0.0 mm 0.00 in0.0 mm
12:23 PM 28.6°F-1.9°C 14.9°F-9.5°C 56% 4.7 mph NNE7.6 kmh NNE 13.0 mph20.9 kmh 30.49 in1032.5 mb 0.00 in0.0 mm 0.00 in0.0 mm 0.00 in0.0 mm
12:28 PM 28.8°F-1.8°C 14.7°F-9.6°C 55% 3.1 mph N5.0 kmh N 11.0 mph17.7 kmh 30.49 in1032.5 mb 0.00 in0.0 mm 0.00 in0.0 mm 0.00 in0.0 mm
12:33 PM 29.0°F-1.7°C 15.2°F-9.3°C 56% 2.9 mph NNW4.7 kmh NNW 11.0 mph17.7 kmh 30.48 in1032.2 mb 0.00 in0.0 mm 0.00 in0.0 mm 0.00 in0.0 mm
12:38 PM 29.3°F-1.5°C 15.1°F-9.4°C 55% 3.7 mph N6.0 kmh N 11.0 mph17.7 kmh 30.48 in1032.2 mb 0.00 in0.0 mm 0.00 in0.0 mm 0.00 in0.0 mm
12:43 PM 29.8°F-1.2°C 15.6°F-9.1°C 55% 2.0 mph N3.2 kmh N 11.0 mph17.7 kmh 30.48 in1032.2 mb 0.00 in0.0 mm 0.00 in0.0 mm 0.00 in0.0 mm
12:48 PM 29.9°F-1.2°C 15.3°F-9.3°C 54% 5.6 mph N9.0 kmh N 10.0 mph16.1 kmh 30.48 in1032.2 mb 0.00 in0.0 mm 0.00 in0.0 mm 0.00 in0.0 mm
12:53 PM 29.9°F-1.2°C 15.7°F-9.1°C 55% 4.9 mph NNW7.9 kmh NNW 10.0 mph16.1 kmh 30.47 in1031.8 mb 0.00 in0.0 mm 0.00 in0.0 mm 0.00 in0.0 mm
12:58 PM 30.0°F-1.1°C 15.8°F-9.0°C 55% 3.2 mph N5.1 kmh N 10.0 mph16.1 kmh 30.48 in1032.2 mb 0.00 in0.0 mm 0.00 in0.0 mm 0.00 in0.0 mm
01:03 PM 30.2°F-1.0°C 16.0°F-8.9°C 55% 2.9 mph NNW4.7 kmh NNW 10.0 mph16.1 kmh 30.47 in1031.8 mb 0.00 in0.0 mm 0.00 in0.0 mm 0.00 in0.0 mm
01:08 PM 30.4°F-0.9°C 16.2°F-8.8°C 55% 2.7 mph NNW4.3 kmh NNW 10.0 mph16.1 kmh 30.47 in1031.8 mb 0.00 in0.0 mm 0.00 in0.0 mm 0.00 in0.0 mm
01:13 PM 30.8°F-0.7°C 16.1°F-8.8°C 54% 2.9 mph NW4.7 kmh NW 12.0 mph19.3 kmh 30.47 in1031.8 mb 0.00 in0.0 mm 0.00 in0.0 mm 0.00 in0.0 mm
01:18 PM 31.0°F-0.6°C 15.8°F-9.0°C 53% 4.7 mph NNE7.6 kmh NNE 12.0 mph19.3 kmh 30.47 in1031.8 mb 0.00 in0.0 mm 0.00 in0.0 mm 0.00 in0.0 mm
01:23 PM 31.1°F-0.5°C 16.4°F-8.7°C 54% 2.9 mph NNW4.7 kmh NNW 12.0 mph19.3 kmh 30.47 in1031.8 mb 0.00 in0.0 mm 0.00 in0.0 mm 0.00 in0.0 mm
01:28 PM 31.2°F-0.4°C 16.5°F-8.6°C 54% 4.2 mph N6.8 kmh N 11.0 mph17.7 kmh 30.47 in1031.8 mb 0.00 in0.0 mm 0.00 in0.0 mm 0.00 in0.0 mm
01:33 PM 31.1°F-0.5°C 16.4°F-8.7°C 54% 2.5 mph N4.0 kmh N 11.0 mph17.7 kmh 30.47 in1031.8 mb 0.00 in0.0 mm 0.00 in0.0 mm 0.00 in0.0 mm
01:38 PM 31.3°F-0.4°C 17.0°F-8.3°C 55% 2.6 mph NNW4.2 kmh NNW 11.0 mph17.7 kmh 30.47 in1031.8 mb 0.00 in0.0 mm 0.00 in0.0 mm 0.00 in0.0 mm
01:43 PM 31.1°F-0.5°C 16.4°F-8.7°C 54% 2.4 mph N3.9 kmh N 12.0 mph19.3 kmh 30.47 in1031.8 mb 0.00 in0.0 mm 0.00 in0.0 mm 0.00 in0.0 mm
01:48 PM 31.1°F-0.5°C 16.4°F-8.7°C 54% 4.5 mph NW7.2 kmh NW 12.0 mph19.3 kmh 30.47 in1031.8 mb 0.00 in0.0 mm 0.00 in0.0 mm 0.00 in0.0 mm
01:53 PM 31.3°F-0.4°C 17.0°F-8.3°C 55% 4.3 mph NNE6.9 kmh NNE 12.0 mph19.3 kmh 30.47 in1031.8 mb 0.00 in0.0 mm 0.00 in0.0 mm 0.00 in0.0 mm
01:58 PM 31.0°F-0.6°C 16.3°F-8.7°C 54% 4.3 mph N6.9 kmh N 13.0 mph20.9 kmh 30.47 in1031.8 mb 0.00 in0.0 mm 0.00 in0.0 mm 0.00 in0.0 mm
02:03 PM 30.7°F-0.7°C 16.0°F-8.9°C 54% 6.7 mph N10.8 kmh N 13.0 mph20.9 kmh 30.47 in1031.8 mb 0.00 in0.0 mm 0.00 in0.0 mm 0.00 in0.0 mm
02:08 PM 30.6°F-0.8°C 16.3°F-8.7°C 55% 4.7 mph N7.6 kmh N 13.0 mph20.9 kmh 30.46 in1031.5 mb 0.00 in0.0 mm 0.00 in0.0 mm 0.00 in0.0 mm
02:13 PM 31.0°F-0.6°C 16.7°F-8.5°C 55% 2.9 mph N4.7 kmh N 13.0 mph20.9 kmh 30.47 in1031.8 mb 0.00 in0.0 mm 0.00 in0.0 mm 0.00 in0.0 mm
02:18 PM 31.1°F-0.5°C 16.4°F-8.7°C 54% 4.2 mph N6.8 kmh N 12.0 mph19.3 kmh 30.47 in1031.8 mb 0.00 in0.0 mm 0.00 in0.0 mm 0.00 in0.0 mm
02:23 PM 31.3°F-0.4°C 16.6°F-8.6°C 54% 4.8 mph NNW7.7 kmh NNW 12.0 mph19.3 kmh 30.47 in1031.8 mb 0.00 in0.0 mm 0.00 in0.0 mm 0.00 in0.0 mm
02:28 PM 31.2°F-0.4°C 16.5°F-8.6°C 54% 6.0 mph NNW9.7 kmh NNW 11.0 mph17.7 kmh 30.47 in1031.8 mb 0.00 in0.0 mm 0.00 in0.0 mm 0.00 in0.0 mm
02:34 PM 30.8°F-0.7°C 16.1°F-8.8°C 54% 4.2 mph NW6.8 kmh NW 14.0 mph22.5 kmh 30.47 in1031.8 mb 0.00 in0.0 mm 0.00 in0.0 mm 0.00 in0.0 mm
02:38 PM 30.9°F-0.6°C 16.6°F-8.6°C 55% 3.3 mph NW5.3 kmh NW 14.0 mph22.5 kmh 30.47 in1031.8 mb 0.00 in0.0 mm 0.00 in0.0 mm 0.00 in0.0 mm
02:44 PM 31.2°F-0.4°C 16.5°F-8.6°C 54% 3.0 mph NNW4.8 kmh NNW 14.0 mph22.5 kmh 30.47 in1031.8 mb 0.00 in0.0 mm 0.00 in0.0 mm 0.00 in0.0 mm
02:49 PM 31.3°F-0.4°C 16.1°F-8.8°C 53% 4.2 mph NNW6.8 kmh NNW 14.0 mph22.5 kmh 30.47 in1031.8 mb 0.00 in0.0 mm 0.00 in0.0 mm 0.00 in0.0 mm
02:54 PM 31.1°F-0.5°C 15.9°F-8.9°C 53% 6.8 mph N10.9 kmh N 12.0 mph19.3 kmh 30.48 in1032.2 mb 0.00 in0.0 mm 0.00 in0.0 mm 0.00 in0.0 mm
02:59 PM 30.9°F-0.6°C 15.7°F-9.1°C 53% 3.6 mph NW5.8 kmh NW 13.0 mph20.9 kmh 30.47 in1031.8 mb 0.00 in0.0 mm 0.00 in0.0 mm 0.00 in0.0 mm
03:04 PM 31.1°F-0.5°C 16.4°F-8.7°C 54% 3.0 mph 4.8 kmh 13.0 mph20.9 kmh 30.48 in1032.2 mb 0.00 in0.0 mm 0.00 in0.0 mm 0.00 in0.0 mm
03:09 PM 31.0°F-0.6°C 15.8°F-9.0°C 53% 5.4 mph NNW8.7 kmh NNW 13.0 mph20.9 kmh 30.48 in1032.2 mb 0.00 in0.0 mm 0.00 in0.0 mm 0.00 in0.0 mm
03:14 PM 30.7°F-0.7°C 16.0°F-8.9°C 54% 4.6 mph NNW7.4 kmh NNW 13.0 mph20.9 kmh 30.48 in1032.2 mb 0.00 in0.0 mm 0.00 in0.0 mm 0.00 in0.0 mm
03:19 PM 30.8°F-0.7°C 16.1°F-8.8°C 54% 3.1 mph N5.0 kmh N 12.0 mph19.3 kmh 30.48 in1032.2 mb 0.00 in0.0 mm 0.00 in0.0 mm 0.00 in0.0 mm
03:24 PM 30.9°F-0.6°C 16.2°F-8.8°C 54% 3.9 mph NNW6.3 kmh NNW 12.0 mph19.3 kmh 30.48 in1032.2 mb 0.00 in0.0 mm 0.00 in0.0 mm 0.00 in0.0 mm
03:29 PM 31.1°F-0.5°C 16.4°F-8.7°C 54% 4.3 mph NNW6.9 kmh NNW 12.0 mph19.3 kmh 30.48 in1032.2 mb 0.00 in0.0 mm 0.00 in0.0 mm 0.00 in0.0 mm
03:34 PM 31.5°F-0.3°C 16.7°F-8.5°C 54% 2.5 mph N4.0 kmh N 9.0 mph14.5 kmh 30.48 in1032.2 mb 0.00 in0.0 mm 0.00 in0.0 mm 0.00 in0.0 mm
03:39 PM 31.8°F-0.1°C 16.6°F-8.6°C 53% 3.6 mph NNW5.8 kmh NNW 9.0 mph14.5 kmh 30.48 in1032.2 mb 0.00 in0.0 mm 0.00 in0.0 mm 0.00 in0.0 mm
03:44 PM 31.4°F-0.3°C 15.8°F-9.0°C 52% 4.4 mph 7.1 kmh 9.0 mph14.5 kmh 30.48 in1032.2 mb 0.00 in0.0 mm 0.00 in0.0 mm 0.00 in0.0 mm
03:49 PM 31.3°F-0.4°C 16.1°F-8.8°C 53% 4.0 mph NNW6.4 kmh NNW 8.0 mph12.9 kmh 30.48 in1032.2 mb 0.00 in0.0 mm 0.00 in0.0 mm 0.00 in0.0 mm
03:54 PM 31.2°F-0.4°C 16.0°F-8.9°C 53% 2.4 mph NW3.9 kmh NW 8.0 mph12.9 kmh 30.48 in1032.2 mb 0.00 in0.0 mm 0.00 in0.0 mm 0.00 in0.0 mm
03:59 PM 31.1°F-0.5°C 15.9°F-8.9°C 53% 4.4 mph N7.1 kmh N 9.0 mph14.5 kmh 30.48 in1032.2 mb 0.00 in0.0 mm 0.00 in0.0 mm 0.00 in0.0 mm
04:04 PM 31.2°F-0.4°C 16.0°F-8.9°C 53% 3.8 mph N6.1 kmh N 9.0 mph14.5 kmh 30.48 in1032.2 mb 0.00 in0.0 mm 0.00 in0.0 mm 0.00 in0.0 mm
04:09 PM 31.2°F-0.4°C 16.5°F-8.6°C 54% 1.6 mph NNE2.6 kmh NNE 10.0 mph16.1 kmh 30.48 in1032.2 mb 0.00 in0.0 mm 0.00 in0.0 mm 0.00 in0.0 mm
04:14 PM 31.5°F-0.3°C 15.9°F-8.9°C 52% 3.3 mph NNW5.3 kmh NNW 10.0 mph16.1 kmh 30.49 in1032.5 mb 0.00 in0.0 mm 0.00 in0.0 mm 0.00 in0.0 mm
04:19 PM 31.2°F-0.4°C 15.6°F-9.1°C 52% 4.2 mph NNW6.8 kmh NNW 11.0 mph17.7 kmh 30.49 in1032.5 mb 0.00 in0.0 mm 0.00 in0.0 mm 0.00 in0.0 mm
04:24 PM 31.2°F-0.4°C 15.6°F-9.1°C 52% 5.7 mph NNW9.2 kmh NNW 12.0 mph19.3 kmh 30.49 in1032.5 mb 0.00 in0.0 mm 0.00 in0.0 mm 0.00 in0.0 mm
04:29 PM 31.2°F-0.4°C 15.6°F-9.1°C 52% 4.9 mph NNW7.9 kmh NNW 12.0 mph19.3 kmh 30.49 in1032.5 mb 0.00 in0.0 mm 0.00 in0.0 mm 0.00 in0.0 mm
04:34 PM 31.0°F-0.6°C 15.4°F-9.2°C 52% 3.7 mph NW6.0 kmh NW 12.0 mph19.3 kmh 30.49 in1032.5 mb 0.00 in0.0 mm 0.00 in0.0 mm 0.00 in0.0 mm
04:39 PM 31.2°F-0.4°C 16.0°F-8.9°C 53% 2.2 mph N3.5 kmh N 12.0 mph19.3 kmh 30.49 in1032.5 mb 0.00 in0.0 mm 0.00 in0.0 mm 0.00 in0.0 mm
04:44 PM 31.2°F-0.4°C 15.6°F-9.1°C 52% 2.8 mph NW4.5 kmh NW 12.0 mph19.3 kmh 30.49 in1032.5 mb 0.00 in0.0 mm 0.00 in0.0 mm 0.00 in0.0 mm
04:49 PM 31.2°F-0.4°C 15.6°F-9.1°C 52% 4.1 mph NNW6.6 kmh NNW 12.0 mph19.3 kmh 30.49 in1032.5 mb 0.00 in0.0 mm 0.00 in0.0 mm 0.00 in0.0 mm
04:54 PM 30.9°F-0.6°C 15.3°F-9.3°C 52% 5.4 mph NNW8.7 kmh NNW 13.0 mph20.9 kmh 30.50 in1032.8 mb 0.00 in0.0 mm 0.00 in0.0 mm 0.00 in0.0 mm
04:59 PM 30.8°F-0.7°C 15.2°F-9.3°C 52% 4.3 mph NW6.9 kmh NW 13.0 mph20.9 kmh 30.50 in1032.8 mb 0.00 in0.0 mm 0.00 in0.0 mm 0.00 in0.0 mm
05:04 PM 30.6°F-0.8°C 15.5°F-9.2°C 53% 2.0 mph NW3.2 kmh NW 13.0 mph20.9 kmh 30.50 in1032.8 mb 0.00 in0.0 mm 0.00 in0.0 mm 0.00 in0.0 mm
05:09 PM 30.5°F-0.8°C 14.9°F-9.5°C 52% 5.4 mph NW8.7 kmh NW 13.0 mph20.9 kmh 30.50 in1032.8 mb 0.00 in0.0 mm 0.00 in0.0 mm 0.00 in0.0 mm
05:14 PM 30.2°F-1.0°C 15.1°F-9.4°C 53% 4.7 mph NW7.6 kmh NW 11.0 mph17.7 kmh 30.50 in1032.8 mb 0.00 in0.0 mm 0.00 in0.0 mm 0.00 in0.0 mm
05:19 PM 30.1°F-1.1°C 15.0°F-9.4°C 53% 3.8 mph NW6.1 kmh NW 11.0 mph17.7 kmh 30.50 in1032.8 mb 0.00 in0.0 mm 0.00 in0.0 mm 0.00 in0.0 mm
05:24 PM 29.9°F-1.2°C 14.8°F-9.6°C 53% 4.6 mph NW7.4 kmh NW 13.0 mph20.9 kmh 30.50 in1032.8 mb 0.00 in0.0 mm 0.00 in0.0 mm 0.00 in0.0 mm
05:29 PM 29.8°F-1.2°C 14.7°F-9.6°C 53% 3.8 mph NW6.1 kmh NW 13.0 mph20.9 kmh 30.50 in1032.8 mb 0.00 in0.0 mm 0.00 in0.0 mm 0.00 in0.0 mm
05:34 PM 29.6°F-1.3°C 15.0°F-9.4°C 54% 3.7 mph NNW6.0 kmh NNW 13.0 mph20.9 kmh 30.50 in1032.8 mb 0.00 in0.0 mm 0.00 in0.0 mm 0.00 in0.0 mm
05:39 PM 29.4°F-1.4°C 14.8°F-9.6°C 54% 3.2 mph NW5.1 kmh NW 13.0 mph20.9 kmh 30.50 in1032.8 mb 0.00 in0.0 mm 0.00 in0.0 mm 0.00 in0.0 mm
05:44 PM 29.1°F-1.6°C 14.5°F-9.7°C 54% 3.9 mph NW6.3 kmh NW 11.0 mph17.7 kmh 30.50 in1032.8 mb 0.00 in0.0 mm 0.00 in0.0 mm 0.00 in0.0 mm
05:49 PM 29.0°F-1.7°C 14.4°F-9.8°C 54% 4.9 mph NW7.9 kmh NW 11.0 mph17.7 kmh 30.50 in1032.8 mb 0.00 in0.0 mm 0.00 in0.0 mm 0.00 in0.0 mm
05:54 PM 28.8°F-1.8°C 14.7°F-9.6°C 55% 2.9 mph NW4.7 kmh NW 11.0 mph17.7 kmh 30.50 in1032.8 mb 0.00 in0.0 mm 0.00 in0.0 mm 0.00 in0.0 mm
05:59 PM 28.6°F-1.9°C 14.5°F-9.7°C 55% 3.6 mph NW5.8 kmh NW 9.0 mph14.5 kmh 30.51 in1033.2 mb 0.00 in0.0 mm 0.00 in0.0 mm 0.00 in0.0 mm
06:04 PM 28.5°F-1.9°C 14.4°F-9.8°C 55% 2.4 mph NW3.9 kmh NW 9.0 mph14.5 kmh 30.51 in1033.2 mb 0.00 in0.0 mm 0.00 in0.0 mm 0.00 in0.0 mm
06:09 PM 28.4°F-2.0°C 14.7°F-9.6°C 56% 3.7 mph NW6.0 kmh NW 9.0 mph14.5 kmh 30.51 in1033.2 mb 0.00 in0.0 mm 0.00 in0.0 mm 0.00 in0.0 mm
06:14 PM 28.3°F-2.1°C 14.6°F-9.7°C 56% 3.3 mph NW5.3 kmh NW 9.0 mph14.5 kmh 30.51 in1033.2 mb 0.00 in0.0 mm 0.00 in0.0 mm 0.00 in0.0 mm
06:18 PM 28.2°F-2.1°C 14.5°F-9.7°C 56% 2.1 mph NW3.4 kmh NW 12.0 mph19.3 kmh 30.52 in1033.5 mb 0.00 in0.0 mm 0.00 in0.0 mm 0.00 in0.0 mm
06:23 PM 28.0°F-2.2°C 14.7°F-9.6°C 57% 3.4 mph NW5.5 kmh NW 12.0 mph19.3 kmh 30.52 in1033.5 mb 0.00 in0.0 mm 0.00 in0.0 mm 0.00 in0.0 mm
06:28 PM 27.8°F-2.3°C 14.5°F-9.7°C 57% 5.1 mph NW8.2 kmh NW 12.0 mph19.3 kmh 30.52 in1033.5 mb 0.00 in0.0 mm 0.00 in0.0 mm 0.00 in0.0 mm
06:33 PM 27.7°F-2.4°C 14.8°F-9.6°C 58% 3.3 mph NW5.3 kmh NW 11.0 mph17.7 kmh 30.52 in1033.5 mb 0.00 in0.0 mm 0.00 in0.0 mm 0.00 in0.0 mm
06:38 PM 27.5°F-2.5°C 14.7°F-9.6°C 58% 3.6 mph NW5.8 kmh NW 11.0 mph17.7 kmh 30.52 in1033.5 mb 0.00 in0.0 mm 0.00 in0.0 mm 0.00 in0.0 mm
06:43 PM 27.4°F-2.6°C 14.6°F-9.7°C 58% 4.6 mph NW7.4 kmh NW 12.0 mph19.3 kmh 30.52 in1033.5 mb 0.00 in0.0 mm 0.00 in0.0 mm 0.00 in0.0 mm
06:48 PM 27.3°F-2.6°C 14.5°F-9.7°C 58% 3.1 mph NNW5.0 kmh NNW 12.0 mph19.3 kmh 30.52 in1033.5 mb 0.00 in0.0 mm 0.00 in0.0 mm 0.00 in0.0 mm
06:53 PM 27.1°F-2.7°C 14.7°F-9.6°C 59% 3.4 mph NW5.5 kmh NW 12.0 mph19.3 kmh 30.52 in1033.5 mb 0.00 in0.0 mm 0.00 in0.0 mm 0.00 in0.0 mm
06:58 PM 27.0°F-2.8°C 14.6°F-9.7°C 59% 4.2 mph NW6.8 kmh NW 12.0 mph19.3 kmh 30.53 in1033.9 mb 0.00 in0.0 mm 0.00 in0.0 mm 0.00 in0.0 mm
07:03 PM 27.0°F-2.8°C 14.6°F-9.7°C 59% 4.2 mph NW6.8 kmh NW 11.0 mph17.7 kmh 30.53 in1033.9 mb 0.00 in0.0 mm 0.00 in0.0 mm 0.00 in0.0 mm
07:08 PM 26.9°F-2.8°C 14.5°F-9.7°C 59% 3.0 mph NNW4.8 kmh NNW 11.0 mph17.7 kmh 30.53 in1033.9 mb 0.00 in0.0 mm 0.00 in0.0 mm 0.00 in0.0 mm
07:13 PM 26.8°F-2.9°C 14.4°F-9.8°C 59% 3.5 mph NW5.6 kmh NW 11.0 mph17.7 kmh 30.53 in1033.9 mb 0.00 in0.0 mm 0.00 in0.0 mm 0.00 in0.0 mm
07:18 PM 26.7°F-2.9°C 14.3°F-9.8°C 59% 2.8 mph NW4.5 kmh NW 11.0 mph17.7 kmh 30.53 in1033.9 mb 0.00 in0.0 mm 0.00 in0.0 mm 0.00 in0.0 mm
07:23 PM 26.6°F-3.0°C 14.2°F-9.9°C 59% 3.4 mph NNW5.5 kmh NNW 10.0 mph16.1 kmh 30.53 in1033.9 mb 0.00 in0.0 mm 0.00 in0.0 mm 0.00 in0.0 mm
07:28 PM 26.6°F-3.0°C 14.2°F-9.9°C 59% 3.7 mph NW6.0 kmh NW 10.0 mph16.1 kmh 30.53 in1033.9 mb 0.00 in0.0 mm 0.00 in0.0 mm 0.00 in0.0 mm
07:33 PM 26.5°F-3.1°C 14.5°F-9.7°C 60% 2.5 mph NW4.0 kmh NW 10.0 mph16.1 kmh 30.53 in1033.9 mb 0.00 in0.0 mm 0.00 in0.0 mm 0.00 in0.0 mm
07:38 PM 26.3°F-3.2°C 14.3°F-9.8°C 60% 1.8 mph NW2.9 kmh NW 10.0 mph16.1 kmh 30.54 in1034.2 mb 0.00 in0.0 mm 0.00 in0.0 mm 0.00 in0.0 mm
07:43 PM 26.2°F-3.2°C 14.6°F-9.7°C 61% 1.8 mph NW2.9 kmh NW 8.0 mph12.9 kmh 30.54 in1034.2 mb 0.00 in0.0 mm 0.00 in0.0 mm 0.00 in0.0 mm
07:48 PM 26.1°F-3.3°C 14.5°F-9.7°C 61% 2.8 mph NW4.5 kmh NW 8.0 mph12.9 kmh 30.53 in1033.9 mb 0.00 in0.0 mm 0.00 in0.0 mm 0.00 in0.0 mm
07:53 PM 26.1°F-3.3°C 14.5°F-9.7°C 61% 3.9 mph NNW6.3 kmh NNW 8.0 mph12.9 kmh 30.54 in1034.2 mb 0.00 in0.0 mm 0.00 in0.0 mm 0.00 in0.0 mm
07:58 PM 25.9°F-3.4°C 14.3°F-9.8°C 61% 1.8 mph NNW2.9 kmh NNW 8.0 mph12.9 kmh 30.54 in1034.2 mb 0.00 in0.0 mm 0.00 in0.0 mm 0.00 in0.0 mm
08:03 PM 25.7°F-3.5°C 14.1°F-9.9°C 61% 2.0 mph N3.2 kmh N 8.0 mph12.9 kmh 30.54 in1034.2 mb 0.00 in0.0 mm 0.00 in0.0 mm 0.00 in0.0 mm
08:08 PM 25.7°F-3.5°C 14.1°F-9.9°C 61% 3.9 mph NNW6.3 kmh NNW 11.0 mph17.7 kmh 30.54 in1034.2 mb 0.00 in0.0 mm 0.00 in0.0 mm 0.00 in0.0 mm
08:13 PM 25.6°F-3.6°C 14.1°F-9.9°C 61% 2.3 mph NNW3.7 kmh NNW 11.0 mph17.7 kmh 30.54 in1034.2 mb 0.00 in0.0 mm 0.00 in0.0 mm 0.00 in0.0 mm
08:18 PM 25.6°F-3.6°C 14.1°F-9.9°C 61% 2.3 mph NW3.7 kmh NW 11.0 mph17.7 kmh 30.54 in1034.2 mb 0.00 in0.0 mm 0.00 in0.0 mm 0.00 in0.0 mm
08:23 PM 25.5°F-3.6°C 14.0°F-10.0°C 61% 2.3 mph NNW3.7 kmh NNW 11.0 mph17.7 kmh 30.54 in1034.2 mb 0.00 in0.0 mm 0.00 in0.0 mm 0.00 in0.0 mm
08:28 PM 25.4°F-3.7°C 13.5°F-10.3°C 60% 2.2 mph NNW3.5 kmh NNW 7.0 mph11.3 kmh 30.54 in1034.2 mb 0.00 in0.0 mm 0.00 in0.0 mm 0.00 in0.0 mm
08:33 PM 25.4°F-3.7°C 13.1°F-10.5°C 59% 4.2 mph NW6.8 kmh NW 11.0 mph17.7 kmh 30.54 in1034.2 mb 0.00 in0.0 mm 0.00 in0.0 mm 0.00 in0.0 mm
08:38 PM 25.3°F-3.7°C 13.0°F-10.6°C 59% 3.5 mph NNW5.6 kmh NNW 11.0 mph17.7 kmh 30.54 in1034.2 mb 0.00 in0.0 mm 0.00 in0.0 mm 0.00 in0.0 mm
08:43 PM 25.3°F-3.7°C 13.0°F-10.6°C 59% 3.1 mph NNW5.0 kmh NNW 11.0 mph17.7 kmh 30.54 in1034.2 mb 0.00 in0.0 mm 0.00 in0.0 mm 0.00 in0.0 mm
08:48 PM 25.2°F-3.8°C 12.5°F-10.8°C 58% 4.3 mph NNW6.9 kmh NNW 11.0 mph17.7 kmh 30.54 in1034.2 mb 0.00 in0.0 mm 0.00 in0.0 mm 0.00 in0.0 mm
08:53 PM 25.1°F-3.8°C 12.4°F-10.9°C 58% 4.8 mph NNW7.7 kmh NNW 11.0 mph17.7 kmh 30.54 in1034.2 mb 0.00 in0.0 mm 0.00 in0.0 mm 0.00 in0.0 mm
08:58 PM 25.0°F-3.9°C 12.3°F-10.9°C 58% 3.3 mph NNW5.3 kmh NNW 11.0 mph17.7 kmh 30.54 in1034.2 mb 0.00 in0.0 mm 0.00 in0.0 mm 0.00 in0.0 mm
09:03 PM 24.9°F-3.9°C 12.2°F-11.0°C 58% 3.9 mph NNW6.3 kmh NNW 11.0 mph17.7 kmh 30.54 in1034.2 mb 0.00 in0.0 mm 0.00 in0.0 mm 0.00 in0.0 mm
09:08 PM 24.8°F-4.0°C 12.1°F-11.1°C 58% 3.6 mph NNW5.8 kmh NNW 10.0 mph16.1 kmh 30.54 in1034.2 mb 0.00 in0.0 mm 0.00 in0.0 mm 0.00 in0.0 mm
09:13 PM 24.7°F-4.1°C 12.0°F-11.1°C 58% 3.9 mph NNW6.3 kmh NNW 10.0 mph16.1 kmh 30.54 in1034.2 mb 0.00 in0.0 mm 0.00 in0.0 mm 0.00 in0.0 mm
09:18 PM 24.6°F-4.1°C 11.5°F-11.4°C 57% 5.3 mph NNW8.5 kmh NNW 11.0 mph17.7 kmh 30.55 in1034.5 mb 0.00 in0.0 mm 0.00 in0.0 mm 0.00 in0.0 mm
09:23 PM 24.5°F-4.2°C 11.4°F-11.4°C 57% 4.6 mph NNW7.4 kmh NNW 13.0 mph20.9 kmh 30.54 in1034.2 mb 0.00 in0.0 mm 0.00 in0.0 mm 0.00 in0.0 mm
09:28 PM 24.4°F-4.2°C 11.7°F-11.3°C 58% 2.5 mph NNW4.0 kmh NNW 13.0 mph20.9 kmh 30.54 in1034.2 mb 0.00 in0.0 mm 0.00 in0.0 mm 0.00 in0.0 mm
09:33 PM 24.3°F-4.3°C 11.7°F-11.3°C 58% 3.1 mph NW5.0 kmh NW 13.0 mph20.9 kmh 30.54 in1034.2 mb 0.00 in0.0 mm 0.00 in0.0 mm 0.00 in0.0 mm
09:38 PM 24.1°F-4.4°C 11.5°F-11.4°C 58% 4.9 mph NNW7.9 kmh NNW 13.0 mph20.9 kmh 30.54 in1034.2 mb 0.00 in0.0 mm 0.00 in0.0 mm 0.00 in0.0 mm
09:43 PM 24.0°F-4.4°C 11.0°F-11.7°C 57% 4.4 mph NNW7.1 kmh NNW 11.0 mph17.7 kmh 30.54 in1034.2 mb 0.00 in0.0 mm 0.00 in0.0 mm 0.00 in0.0 mm
09:48 PM 23.9°F-4.5°C 10.9°F-11.7°C 57% 7.3 mph NNW11.7 kmh NNW 13.0 mph20.9 kmh 30.54 in1034.2 mb 0.00 in0.0 mm 0.00 in0.0 mm 0.00 in0.0 mm
09:53 PM 23.8°F-4.6°C 10.8°F-11.8°C 57% 4.7 mph NNW7.6 kmh NNW 13.0 mph20.9 kmh 30.54 in1034.2 mb 0.00 in0.0 mm 0.00 in0.0 mm 0.00 in0.0 mm
09:58 PM 23.8°F-4.6°C 10.8°F-11.8°C 57% 4.6 mph N7.4 kmh N 13.0 mph20.9 kmh 30.54 in1034.2 mb 0.00 in0.0 mm 0.00 in0.0 mm 0.00 in0.0 mm
10:03 PM 23.6°F-4.7°C 10.6°F-11.9°C 57% 6.2 mph N10.0 kmh N 14.0 mph22.5 kmh 30.54 in1034.2 mb 0.00 in0.0 mm 0.00 in0.0 mm 0.00 in0.0 mm
10:08 PM 23.6°F-4.7°C 10.6°F-11.9°C 57% 4.9 mph N7.9 kmh N 14.0 mph22.5 kmh 30.55 in1034.5 mb 0.00 in0.0 mm 0.00 in0.0 mm 0.00 in0.0 mm
10:13 PM 23.4°F-4.8°C 10.4°F-12.0°C 57% 4.7 mph N7.6 kmh N 14.0 mph22.5 kmh 30.55 in1034.5 mb 0.00 in0.0 mm 0.00 in0.0 mm 0.00 in0.0 mm
10:18 PM 23.3°F-4.8°C 10.3°F-12.1°C 57% 3.6 mph N5.8 kmh N 14.0 mph22.5 kmh 30.54 in1034.2 mb 0.00 in0.0 mm 0.00 in0.0 mm 0.00 in0.0 mm
10:23 PM 23.2°F-4.9°C 10.2°F-12.1°C 57% 5.0 mph N8.0 kmh N 12.0 mph19.3 kmh 30.55 in1034.5 mb 0.00 in0.0 mm 0.00 in0.0 mm 0.00 in0.0 mm
10:28 PM 23.1°F-4.9°C 10.1°F-12.2°C 57% 3.9 mph 6.3 kmh 12.0 mph19.3 kmh 30.55 in1034.5 mb 0.00 in0.0 mm 0.00 in0.0 mm 0.00 in0.0 mm
10:33 PM 23.0°F-5.0°C 10.0°F-12.2°C 57% 2.2 mph NNE3.5 kmh NNE 11.0 mph17.7 kmh 30.56 in1034.9 mb 0.00 in0.0 mm 0.00 in0.0 mm 0.00 in0.0 mm
10:38 PM 22.9°F-5.1°C 10.3°F-12.1°C 58% 2.4 mph NNW3.9 kmh NNW 9.0 mph14.5 kmh 30.56 in1034.9 mb 0.00 in0.0 mm 0.00 in0.0 mm 0.00 in0.0 mm
10:43 PM 22.7°F-5.2°C 10.2°F-12.1°C 58% 3.5 mph NNW5.6 kmh NNW 9.0 mph14.5 kmh 30.56 in1034.9 mb 0.00 in0.0 mm 0.00 in0.0 mm 0.00 in0.0 mm
10:48 PM 22.7°F-5.2°C 10.2°F-12.1°C 58% 2.2 mph NNW3.5 kmh NNW 10.0 mph16.1 kmh 30.56 in1034.9 mb 0.00 in0.0 mm 0.00 in0.0 mm 0.00 in0.0 mm
10:53 PM 22.5°F-5.3°C 10.0°F-12.2°C 58% 3.5 mph NNW5.6 kmh NNW 10.0 mph16.1 kmh 30.56 in1034.9 mb 0.00 in0.0 mm 0.00 in0.0 mm 0.00 in0.0 mm
10:58 PM 22.4°F-5.3°C 9.9°F-12.3°C 58% 2.3 mph NNW3.7 kmh NNW 10.0 mph16.1 kmh 30.56 in1034.9 mb 0.00 in0.0 mm 0.00 in0.0 mm 0.00 in0.0 mm
11:03 PM 22.3°F-5.4°C 10.2°F-12.1°C 59% 1.8 mph N2.9 kmh N 10.0 mph16.1 kmh 30.56 in1034.9 mb 0.00 in0.0 mm 0.00 in0.0 mm 0.00 in0.0 mm
11:08 PM 22.2°F-5.4°C 10.1°F-12.2°C 59% 2.3 mph NNW3.7 kmh NNW 9.0 mph14.5 kmh 30.57 in1035.2 mb 0.00 in0.0 mm 0.00 in0.0 mm 0.00 in0.0 mm
11:13 PM 22.1°F-5.5°C 10.0°F-12.2°C 59% 2.7 mph N4.3 kmh N 9.0 mph14.5 kmh 30.57 in1035.2 mb 0.00 in0.0 mm 0.00 in0.0 mm 0.00 in0.0 mm
11:18 PM 22.0°F-5.6°C 9.8°F-12.3°C 59% 2.2 mph N3.5 kmh N 9.0 mph14.5 kmh 30.57 in1035.2 mb 0.00 in0.0 mm 0.00 in0.0 mm 0.00 in0.0 mm
11:23 PM 21.9°F-5.6°C 9.8°F-12.3°C 59% 3.1 mph NNW5.0 kmh NNW 9.0 mph14.5 kmh 30.57 in1035.2 mb 0.00 in0.0 mm 0.00 in0.0 mm 0.00 in0.0 mm
11:28 PM 21.8°F-5.7°C 9.7°F-12.4°C 59% 2.3 mph NNW3.7 kmh NNW 9.0 mph14.5 kmh 30.57 in1035.2 mb 0.00 in0.0 mm 0.00 in0.0 mm 0.00 in0.0 mm
11:33 PM 21.7°F-5.7°C 9.6°F-12.4°C 59% 1.6 mph N2.6 kmh N 7.0 mph11.3 kmh 30.57 in1035.2 mb 0.00 in0.0 mm 0.00 in0.0 mm 0.00 in0.0 mm
11:38 PM 21.6°F-5.8°C 9.9°F-12.3°C 60% 2.3 mph N3.7 kmh N 7.0 mph11.3 kmh 30.57 in1035.2 mb 0.00 in0.0 mm 0.00 in0.0 mm 0.00 in0.0 mm
11:43 PM 21.5°F-5.8°C 9.8°F-12.3°C 60% 2.7 mph N4.3 kmh N 7.0 mph11.3 kmh 30.57 in1035.2 mb 0.00 in0.0 mm 0.00 in0.0 mm 0.00 in0.0 mm
11:48 PM 21.4°F-5.9°C 9.7°F-12.4°C 60% 1.1 mph NNW1.8 kmh NNW 6.0 mph9.7 kmh 30.57 in1035.2 mb 0.00 in0.0 mm 0.00 in0.0 mm 0.00 in0.0 mm
11:53 PM 21.3°F-5.9°C 9.6°F-12.4°C 60% 1.7 mph N2.7 kmh N 6.0 mph9.7 kmh 30.57 in1035.2 mb 0.00 in0.0 mm 0.00 in0.0 mm 0.00 in0.0 mm
11:58 PM 21.1°F-6.1°C 9.4°F-12.6°C 60% 2.0 mph N3.2 kmh N 6.0 mph9.7 kmh 30.57 in1035.2 mb 0.00 in0.0 mm 0.00 in0.0 mm 0.00 in0.0 mm